Time;durP1;ratioP1;P1;durP2;ratioP2;P2;SDS_P1;SDS_P2;PMS_P1;PMS_P2;Temp;Humidity;BMP_temperature;BMP_pressure;BME280_temperature;BME280_humidity;BME280_pressure;Samples;Min_cycle;Max_cycle;Signal;HPM_P1;HPM_P2
2023/02/07 00:02:05;;;;;;;;;15.75;14.25;;;;;6.38;52.51;103070.25;4960962;28;45216;-68
2023/02/07 00:04:30;;;;;;;;;16.75;13.25;;;;;6.36;52.45;103068.41;4960861;28;45257;-68
2023/02/07 00:06:56;;;;;;;;;22.25;16.00;;;;;6.33;52.44;103071.78;4960965;28;45582;-68
2023/02/07 00:09:21;;;;;;;;;19.75;15.75;;;;;6.29;52.69;103070.78;4960695;28;45228;-68
2023/02/07 00:11:46;;;;;;;;;19.75;16.25;;;;;6.29;52.67;103062.94;4960541;28;45216;-68
2023/02/07 00:14:12;;;;;;;;;17.25;17.25;;;;;6.27;52.47;103069.81;4960934;28;45219;-68
2023/02/07 00:16:38;;;;;;;;;19.25;13.00;;;;;6.25;52.21;103070.56;4960809;28;45457;-68
2023/02/07 00:19:04;;;;;;;;;23.25;17.75;;;;;6.23;52.72;103064.41;4959569;28;45340;-68
2023/02/07 00:21:29;;;;;;;;;19.50;15.50;;;;;6.21;52.57;103061.72;4960789;28;45466;-68
2023/02/07 00:23:55;;;;;;;;;14.25;13.00;;;;;6.21;52.67;103058.22;4960501;28;45349;-68
2023/02/07 00:26:22;;;;;;;;;16.50;13.75;;;;;6.19;52.63;103045.13;4960498;28;45493;-68
2023/02/07 00:28:49;;;;;;;;;17.00;15.00;;;;;6.15;52.58;103045.81;4947517;28;45495;-68
2023/02/07 00:31:20;;;;;;;;;12.50;12.25;;;;;6.15;52.59;103048.41;4960955;28;45240;-68
2023/02/07 00:33:47;;;;;;;;;12.00;11.25;;;;;6.13;52.57;103045.75;4963951;28;45342;-68
2023/02/07 00:36:18;;;;;;;;;15.25;12.50;;;;;6.11;52.58;103033.47;4962312;28;45457;-69
2023/02/07 00:38:45;;;;;;;;;20.25;13.25;;;;;6.08;52.87;103036.84;4963748;28;46364;-68
2023/02/07 00:41:16;;;;;;;;;17.50;14.50;;;;;6.08;52.67;103038.56;4964322;28;45486;-74
2023/02/07 00:43:42;;;;;;;;;16.00;12.75;;;;;6.03;52.81;103034.88;4947164;28;45282;-75
2023/02/07 00:46:07;;;;;;;;;14.75;14.75;;;;;6.03;52.71;103038.38;4963877;28;45251;-74
2023/02/07 00:48:33;;;;;;;;;20.25;16.25;;;;;6.02;52.81;103044.41;4963687;28;45388;-74
2023/02/07 00:50:59;;;;;;;;;15.00;14.25;;;;;6.01;52.72;103048.75;4964186;28;45416;-75
2023/02/07 00:53:27;;;;;;;;;9.25;7.50;;;;;6.01;52.86;103042.63;4963884;28;45493;-74
2023/02/07 00:55:52;;;;;;;;;17.75;16.00;;;;;5.99;52.63;103049.53;4963659;28;45998;-74
2023/02/07 00:58:18;;;;;;;;;13.00;12.00;;;;;5.97;52.87;103043.31;4963235;28;45419;-74
2023/02/07 01:00:43;;;;;;;;;20.50;14.75;;;;;5.93;52.77;103041.41;4963749;28;45247;-74
2023/02/07 01:03:09;;;;;;;;;21.75;16.75;;;;;5.88;52.81;103041.19;4963452;28;45204;-75
2023/02/07 01:05:34;;;;;;;;;18.25;15.25;;;;;5.90;52.81;103038.63;4962420;28;45537;-74
2023/02/07 01:08:00;;;;;;;;;16.50;12.25;;;;;5.89;52.58;103042.97;4963318;28;45269;-75
2023/02/07 01:10:25;;;;;;;;;16.25;13.50;;;;;5.88;52.70;103035.09;4963477;28;45269;-74
2023/02/07 01:12:51;;;;;;;;;19.75;16.00;;;;;5.85;52.76;103039.34;4963399;28;45334;-74
2023/02/07 01:15:17;;;;;;;;;15.50;13.75;;;;;5.84;52.79;103041.91;4963559;28;45254;-74
2023/02/07 01:17:43;;;;;;;;;19.50;14.00;;;;;5.83;52.86;103037.50;4963192;28;45390;-74
2023/02/07 01:20:09;;;;;;;;;22.25;13.50;;;;;5.81;53.18;103040.06;4963565;28;45227;-74
2023/02/07 01:22:36;;;;;;;;;15.00;14.25;;;;;5.79;52.86;103030.38;4963464;28;45328;-74
2023/02/07 01:25:01;;;;;;;;;15.25;13.00;;;;;5.79;53.02;103036.47;4963079;28;45434;-74
2023/02/07 01:27:26;;;;;;;;;22.75;18.75;;;;;5.77;52.93;103032.03;4962946;28;46125;-74
2023/02/07 01:29:52;;;;;;;;;16.25;12.75;;;;;5.73;52.84;103017.94;4963057;28;45302;-75
2023/02/07 01:32:17;;;;;;;;;14.50;13.00;;;;;5.74;53.11;103021.47;4963141;28;45373;-74
2023/02/07 01:34:42;;;;;;;;;12.75;8.50;;;;;5.71;52.95;103022.25;4963104;28;45497;-74
2023/02/07 01:37:08;;;;;;;;;23.00;15.75;;;;;5.69;52.98;103026.50;4942411;28;46976;-74
2023/02/07 01:39:33;;;;;;;;;19.00;16.75;;;;;5.66;53.10;103023.72;4960488;28;45259;-75
2023/02/07 01:41:58;;;;;;;;;14.75;13.00;;;;;5.68;52.82;103024.69;4962488;28;45743;-75
2023/02/07 01:44:24;;;;;;;;;15.25;14.50;;;;;5.67;53.02;103030.72;4962693;28;45353;-74
2023/02/07 01:46:51;;;;;;;;;17.25;14.00;;;;;5.63;52.88;103029.72;4963193;28;45291;-74
2023/02/07 01:49:22;;;;;;;;;17.75;14.25;;;;;5.64;53.21;103033.22;4962838;28;45180;-74
2023/02/07 01:51:53;;;;;;;;;19.00;13.00;;;;;5.61;52.88;103025.25;4945574;28;45345;-74
2023/02/07 01:54:20;;;;;;;;;20.00;16.50;;;;;5.61;53.25;103025.25;4962834;28;45442;-75
2023/02/07 01:56:52;;;;;;;;;19.00;14.75;;;;;5.59;52.92;103026.94;4948249;28;46735;-74
2023/02/07 01:59:17;;;;;;;;;12.75;10.50;;;;;5.56;52.76;103027.69;4962894;28;45239;-75
2023/02/07 02:01:45;;;;;;;;;13.50;12.50;;;;;5.56;53.27;103029.38;4962863;28;45262;-75
2023/02/07 02:04:10;;;;;;;;;19.50;15.00;;;;;5.52;52.88;103031.88;4962507;28;45489;-75
2023/02/07 02:06:37;;;;;;;;;16.50;13.50;;;;;5.50;53.07;103017.88;4962624;28;46027;-75
2023/02/07 02:09:09;;;;;;;;;18.25;15.50;;;;;5.47;53.16;103022.97;4962753;28;45339;-75
2023/02/07 02:11:44;;;;;;;;;15.25;15.00;;;;;5.46;53.05;103021.16;4961894;28;45434;-75
2023/02/07 02:14:29;;;;;;;;;16.50;13.25;;;;;5.44;53.56;103012.38;4961287;28;45550;-75
2023/02/07 02:17:12;;;;;;;;;15.75;13.00;;;;;5.42;53.21;103008.84;4962670;28;45699;-75
2023/02/07 02:20:23;;;;;;;;;14.50;13.00;;;;;5.39;53.11;102998.25;4962357;28;45357;-75
2023/02/07 02:23:32;;;;;;;;;14.75;14.00;;;;;5.38;53.39;103001.69;4932399;28;45312;-75
2023/02/07 02:26:00;;;;;;;;;14.00;12.75;;;;;5.36;52.99;102993.78;4951236;28;45461;-75
2023/02/07 02:28:52;;;;;;;;;13.00;13.00;;;;;5.34;53.11;102997.16;4962123;28;45981;-75
2023/02/07 02:31:47;;;;;;;;;15.25;14.00;;;;;5.32;53.23;102991.88;4951303;28;45377;-76
2023/02/07 02:34:42;;;;;;;;;14.50;13.50;;;;;5.28;53.30;102996.91;4962328;28;45261;-76
2023/02/07 02:37:14;;;;;;;;;20.00;17.00;;;;;5.26;53.27;102989.00;4962149;28;45583;-75
2023/02/07 02:40:01;;;;;;;;;14.00;13.00;;;;;5.24;53.44;102993.25;4961903;28;46317;-75
2023/02/07 02:42:26;;;;;;;;;15.00;13.00;;;;;5.22;53.46;102997.53;4961958;28;45331;-75
2023/02/07 02:45:00;;;;;;;;;19.50;12.75;;;;;5.18;53.46;102988.69;4961939;28;45457;-75
2023/02/07 02:47:29;;;;;;;;;15.75;14.50;;;;;5.19;53.35;102994.78;4962298;28;45234;-75
2023/02/07 02:49:56;;;;;;;;;17.00;13.75;;;;;5.16;53.22;102994.66;4961871;28;46119;-75
2023/02/07 02:52:21;;;;;;;;;14.75;14.00;;;;;5.16;53.16;102990.31;4962202;28;45342;-75
2023/02/07 02:54:47;;;;;;;;;14.50;14.50;;;;;5.13;53.45;102995.41;4960720;28;45456;-75
2023/02/07 02:57:33;;;;;;;;;15.75;12.50;;;;;5.15;53.27;102996.34;4961787;28;45422;-76
2023/02/07 03:00:37;;;;;;;;;19.25;12.50;;;;;5.13;53.30;103000.63;4961753;28;46149;-75
2023/02/07 03:03:21;;;;;;;;;18.25;14.75;;;;;5.11;53.35;102993.56;4961607;28;45377;-74
2023/02/07 03:06:05;;;;;;;;;15.50;12.75;;;;;5.09;53.58;102985.66;4961913;28;45305;-75
2023/02/07 03:08:44;;;;;;;;;20.75;14.50;;;;;5.08;53.41;102981.28;4961887;28;45301;-75
2023/02/07 03:11:19;;;;;;;;;15.00;13.25;;;;;5.07;53.36;102974.28;4961240;28;46155;-75
2023/02/07 03:14:07;;;;;;;;;14.25;13.25;;;;;5.06;53.47;102977.72;4961733;28;45267;-75
2023/02/07 03:16:47;;;;;;;;;16.50;13.25;;;;;5.02;53.57;102979.28;4961790;28;45243;-75
2023/02/07 03:19:45;;;;;;;;;18.25;15.25;;;;;4.99;53.28;102973.03;4961599;28;45258;-75
2023/02/07 03:22:14;;;;;;;;;15.50;13.50;;;;;4.98;53.38;102974.75;4946543;28;46101;-75
2023/02/07 03:24:53;;;;;;;;;17.75;14.25;;;;;4.96;53.49;102983.34;4961479;28;45280;-75
2023/02/07 03:27:22;;;;;;;;;19.75;14.00;;;;;4.95;53.36;102984.16;4961343;28;45275;-74
2023/02/07 03:29:51;;;;;;;;;17.25;16.00;;;;;4.93;53.54;102989.31;4961385;28;45334;-74
2023/02/07 03:32:19;;;;;;;;;14.25;14.00;;;;;4.92;53.29;102994.44;4961244;28;46992;-75
2023/02/07 03:34:56;;;;;;;;;15.25;12.50;;;;;4.90;53.58;102990.88;4961551;28;45185;-75
2023/02/07 03:37:27;;;;;;;;;12.00;12.00;;;;;4.87;53.73;102989.91;4961398;28;45357;-75
2023/02/07 03:39:53;;;;;;;;;16.25;13.75;;;;;4.82;53.73;102991.41;4961231;28;45399;-75
2023/02/07 03:42:18;;;;;;;;;17.50;14.25;;;;;4.83;53.51;102994.91;4960936;28;46561;-75
2023/02/07 03:44:45;;;;;;;;;13.25;12.25;;;;;4.81;53.68;103001.78;4961018;28;45492;-75
2023/02/07 03:47:10;;;;;;;;;16.00;13.25;;;;;4.77;53.64;102987.72;4961309;28;45263;-76
2023/02/07 03:49:36;;;;;;;;;18.25;13.75;;;;;4.77;53.76;102997.22;4961229;28;45229;-75
2023/02/07 03:52:01;;;;;;;;;17.50;14.75;;;;;4.76;53.46;102990.25;4961143;28;47158;-75
2023/02/07 03:54:27;;;;;;;;;15.25;13.25;;;;;4.74;53.59;102990.16;4943329;28;45476;-75
2023/02/07 03:56:52;;;;;;;;;14.75;11.75;;;;;4.74;53.67;102999.69;4961209;28;45482;-75
2023/02/07 03:59:17;;;;;;;;;16.00;12.75;;;;;4.72;53.84;102994.44;4961024;28;45300;-75
2023/02/07 04:01:42;;;;;;;;;14.25;12.50;;;;;4.70;53.72;102994.38;4960953;28;46287;-75
2023/02/07 04:04:10;;;;;;;;;16.50;15.75;;;;;4.67;53.50;102988.13;4960957;28;45252;-75
2023/02/07 04:06:35;;;;;;;;;18.00;12.75;;;;;4.64;53.15;102993.16;4960706;28;45298;-75
2023/02/07 04:09:01;;;;;;;;;17.75;13.25;;;;;4.64;53.61;102987.97;4961101;28;45235;-75
2023/02/07 04:11:26;;;;;;;;;18.25;13.75;;;;;4.61;53.83;102993.91;4960278;28;46460;-75
2023/02/07 04:13:51;;;;;;;;;20.75;15.50;;;;;4.59;53.59;102994.66;4960829;28;45271;-75
2023/02/07 04:16:16;;;;;;;;;18.00;13.50;;;;;4.56;53.87;102991.09;4960841;28;45319;-75
2023/02/07 04:18:42;;;;;;;;;14.00;13.50;;;;;4.55;53.98;102993.63;4943415;28;45382;-75
2023/02/07 04:21:08;;;;;;;;;16.25;11.75;;;;;4.51;53.86;102996.91;4960559;28;45275;-75
2023/02/07 04:23:34;;;;;;;;;19.50;16.50;;;;;4.53;53.77;102997.91;4960855;28;45414;-75
2023/02/07 04:26:00;;;;;;;;;19.75;16.00;;;;;4.49;53.57;103004.66;4960537;28;45236;-75
2023/02/07 04:28:25;;;;;;;;;17.00;14.75;;;;;4.48;54.02;103009.81;4960711;28;45240;-75
2023/02/07 04:30:51;;;;;;;;;19.00;13.75;;;;;4.47;53.78;103013.22;4960404;28;46048;-75
2023/02/07 04:33:16;;;;;;;;;19.25;16.00;;;;;4.45;54.12;103007.91;4960784;28;45145;-75
2023/02/07 04:35:41;;;;;;;;;20.50;14.50;;;;;4.43;53.74;103008.66;4960635;28;45219;-75
2023/02/07 04:38:07;;;;;;;;;16.00;13.00;;;;;4.42;53.84;103007.78;4960704;28;45410;-75
2023/02/07 04:40:33;;;;;;;;;18.25;18.00;;;;;4.42;53.82;102997.38;4960193;28;46426;-75
2023/02/07 04:42:58;;;;;;;;;14.00;12.25;;;;;4.40;53.89;103017.22;4960324;28;45221;-74
2023/02/07 04:45:23;;;;;;;;;17.50;12.00;;;;;4.39;53.95;103013.75;4960305;28;45185;-75
2023/02/07 04:47:49;;;;;;;;;15.25;11.75;;;;;4.37;54.07;103006.69;4960511;28;45173;-75
2023/02/07 04:50:14;;;;;;;;;12.75;11.25;;;;;4.38;53.79;103017.16;4960175;28;45823;-75
2023/02/07 04:52:40;;;;;;;;;20.50;17.25;;;;;4.36;53.88;103018.78;4960473;28;45354;-75
2023/02/07 04:55:06;;;;;;;;;16.75;16.75;;;;;4.35;54.10;103023.94;4960119;28;45377;-75
2023/02/07 04:57:32;;;;;;;;;18.25;12.75;;;;;4.33;54.06;103020.38;4960230;28;45501;-75
2023/02/07 04:59:57;;;;;;;;;19.00;15.50;;;;;4.33;53.75;103015.19;4960087;28;45271;-76
2023/02/07 05:02:23;;;;;;;;;20.25;17.50;;;;;4.30;54.05;103013.31;4960371;28;45275;-75
2023/02/07 05:04:48;;;;;;;;;18.25;14.75;;;;;4.29;53.96;103008.94;4960268;28;45295;-74
2023/02/07 05:07:13;;;;;;;;;15.75;12.75;;;;;4.28;53.90;103016.66;4942832;28;45533;-74
2023/02/07 05:09:39;;;;;;;;;14.75;13.50;;;;;4.26;54.09;103024.38;4959775;28;45636;-74
2023/02/07 05:12:04;;;;;;;;;13.25;10.75;;;;;4.26;53.72;103031.31;4960216;28;45353;-74
2023/02/07 05:14:29;;;;;;;;;19.50;17.50;;;;;4.26;54.20;103031.31;4960331;28;45181;-74
2023/02/07 05:16:55;;;;;;;;;20.75;14.25;;;;;4.24;54.25;103028.63;4960137;28;45752;-74
2023/02/07 05:19:20;;;;;;;;;17.25;16.25;;;;;4.20;54.12;103032.81;4963165;28;45248;-74
2023/02/07 05:21:45;;;;;;;;;13.75;13.25;;;;;4.21;54.12;103034.59;4946110;28;45682;-74
2023/02/07 05:24:11;;;;;;;;;22.50;18.75;;;;;4.20;54.15;103029.28;4963194;28;45218;-74
2023/02/07 05:26:36;;;;;;;;;26.25;22.25;;;;;4.17;54.02;103019.63;4963057;28;45218;-73
2023/02/07 05:29:01;;;;;;;;;22.75;19.25;;;;;4.15;54.65;103031.69;4962993;28;46158;-74
2023/02/07 05:33:02;;;;;;;;;19.25;13.00;;;;;4.13;54.13;103033.31;4963308;28;45231;-74
2023/02/07 05:34:12;;;;;;;;;24.00;16.75;;;;;4.11;54.33;103040.13;4963051;28;45340;-74
2023/02/07 05:36:37;;;;;;;;;17.75;13.50;;;;;4.10;54.29;103037.47;4963249;28;45312;-74
2023/02/07 05:39:03;;;;;;;;;17.25;14.00;;;;;4.11;53.94;103029.72;4963010;28;46084;-74
2023/02/07 05:41:28;;;;;;;;;16.25;12.00;;;;;4.09;54.47;103020.06;4962664;28;45458;-73
2023/02/07 05:43:53;;;;;;;;;19.50;16.75;;;;;4.07;54.48;103002.69;4962879;28;45540;-75
2023/02/07 05:46:19;;;;;;;;;12.25;8.00;;;;;4.05;54.00;103006.00;4962669;28;48155;-69
2023/02/07 05:48:44;;;;;;;;;18.50;16.75;;;;;4.04;54.32;103018.13;4962263;28;49474;-69
2023/02/07 05:51:09;;;;;;;;;23.00;18.25;;;;;4.03;54.43;103031.06;4962601;28;49640;-69
2023/02/07 05:53:35;;;;;;;;;22.00;18.25;;;;;4.03;54.31;103033.69;4962945;28;45259;-68
2023/02/07 05:56:00;;;;;;;;;17.25;13.75;;;;;4.02;54.35;103026.69;4962423;28;45326;-70
2023/02/07 05:58:25;;;;;;;;;15.25;14.00;;;;;4.01;54.44;103023.19;4962602;28;49411;-68
2023/02/07 06:00:51;;;;;;;;;23.75;15.50;;;;;3.99;54.40;103023.94;4963098;28;45267;-69
2023/02/07 06:03:16;;;;;;;;;16.50;15.00;;;;;4.00;54.15;103036.09;4945096;28;45294;-69
2023/02/07 06:05:41;;;;;;;;;19.50;16.00;;;;;3.99;54.54;103031.75;4962773;28;45541;-68
2023/02/07 06:08:06;;;;;;;;;17.25;15.50;;;;;3.98;54.80;103030.84;4962553;28;45421;-69
2023/02/07 06:10:32;;;;;;;;;18.00;13.75;;;;;3.96;54.26;103042.00;4962516;28;45358;-69
2023/02/07 06:12:57;;;;;;;;;20.00;17.00;;;;;3.95;54.30;103042.78;4961263;28;45271;-69
2023/02/07 06:15:23;;;;;;;;;18.50;15.00;;;;;3.94;54.18;103043.59;4962511;28;47559;-69
2023/02/07 06:17:48;;;;;;;;;17.50;15.50;;;;;3.93;54.60;103045.31;4962454;28;45443;-70
2023/02/07 06:20:14;;;;;;;;;16.25;13.75;;;;;3.92;54.54;103046.13;4962498;28;45398;-69
2023/02/07 06:22:39;;;;;;;;;20.25;18.00;;;;;3.87;54.47;103039.81;4962432;28;45307;-70
2023/02/07 06:25:07;;;;;;;;;23.75;17.25;;;;;3.91;54.43;103039.16;4962187;28;45398;-69
2023/02/07 06:27:32;;;;;;;;;17.25;14.50;;;;;3.88;54.72;103052.88;4962065;28;45236;-68
2023/02/07 06:29:57;;;;;;;;;17.25;14.00;;;;;3.87;54.58;103058.94;4962198;28;50425;-69
2023/02/07 06:32:23;;;;;;;;;20.00;15.75;;;;;3.86;54.41;103061.44;4962378;28;45174;-68
2023/02/07 06:34:48;;;;;;;;;28.25;19.50;;;;;3.83;54.69;103062.19;4962418;28;45236;-68
2023/02/07 06:37:13;;;;;;;;;15.25;12.50;;;;;3.81;54.40;103057.72;4962044;28;46063;-68
2023/02/07 06:39:39;;;;;;;;;18.25;16.25;;;;;3.82;54.60;103055.19;4958576;28;45460;-69
2023/02/07 06:42:04;;;;;;;;;18.25;13.25;;;;;3.82;54.68;103049.09;4946904;28;45594;-67
2023/02/07 06:44:30;;;;;;;;;23.00;16.75;;;;;3.82;54.44;103052.59;4959225;28;45600;-76
2023/02/07 06:46:55;;;;;;;;;16.75;11.75;;;;;3.82;54.50;103062.09;4961723;28;46029;-71
2023/02/07 06:49:20;;;;;;;;;14.50;14.50;;;;;3.81;54.43;103061.22;4956935;28;45319;-73
2023/02/07 06:51:46;;;;;;;;;16.00;13.25;;;;;3.79;54.61;103062.84;4961849;28;45485;-74
2023/02/07 06:54:11;;;;;;;;;23.75;17.75;;;;;3.80;54.87;103071.53;4961659;28;45378;-67
2023/02/07 06:56:36;;;;;;;;;23.50;19.25;;;;;3.78;54.43;103070.56;4959897;28;45462;-65
2023/02/07 06:59:02;;;;;;;;;22.00;16.75;;;;;3.78;54.36;103068.84;4958099;28;45306;-66
2023/02/07 07:01:27;;;;;;;;;16.00;14.25;;;;;3.74;54.73;103073.00;4961866;28;45350;-67
2023/02/07 07:03:52;;;;;;;;;13.50;12.75;;;;;3.74;54.60;103083.41;4961345;28;45363;-66
2023/02/07 07:06:18;;;;;;;;;20.75;16.75;;;;;3.74;54.57;103074.72;4961441;28;51243;-65
2023/02/07 07:08:43;;;;;;;;;18.00;14.25;;;;;3.74;54.41;103080.81;4961558;28;45322;-67
2023/02/07 07:11:08;;;;;;;;;18.75;16.00;;;;;3.73;54.97;103073.81;4961131;28;45346;-67
2023/02/07 07:13:34;;;;;;;;;21.75;18.00;;;;;3.74;54.92;103072.13;4961202;28;45408;-66
2023/02/07 07:15:59;;;;;;;;;19.00;11.00;;;;;3.73;54.60;103072.94;4951644;28;46096;-66
2023/02/07 07:18:24;;;;;;;;;21.50;16.75;;;;;3.72;54.72;103068.53;4961473;28;45373;-66
2023/02/07 07:20:54;;;;;;;;;21.75;15.50;;;;;3.69;54.98;103071.00;4961621;28;45251;-66
2023/02/07 07:23:19;;;;;;;;;19.00;16.25;;;;;3.69;54.37;103078.81;4961303;28;45235;-66
2023/02/07 07:25:45;;;;;;;;;17.00;12.00;;;;;3.68;54.59;103070.09;4960742;28;46061;-66
2023/02/07 07:28:10;;;;;;;;;40.75;33.50;;;;;3.68;54.63;103071.81;4960897;28;45548;-66
2023/02/07 07:30:35;;;;;;;;;16.00;16.00;;;;;3.67;54.60;103081.34;4954705;28;45561;-70
2023/02/07 07:33:01;;;;;;;;;17.75;12.75;;;;;3.66;54.67;103089.03;4943858;28;45382;-69
2023/02/07 07:35:27;;;;;;;;;25.25;17.00;;;;;3.64;54.99;103093.28;4960804;28;45432;-69
2023/02/07 07:37:53;;;;;;;;;17.00;15.50;;;;;3.62;54.49;103092.28;4960973;28;45372;-67
2023/02/07 07:40:18;;;;;;;;;13.25;12.75;;;;;3.63;54.65;103104.50;4960003;28;45372;-68
2023/02/07 07:42:44;;;;;;;;;18.00;17.75;;;;;3.63;54.84;103096.69;4960513;28;45347;-66
2023/02/07 07:45:09;;;;;;;;;18.25;16.25;;;;;3.62;55.02;103097.50;4958528;28;45955;-67
2023/02/07 07:47:35;;;;;;;;;14.00;12.50;;;;;3.63;54.57;103088.88;4943066;28;45396;-65
2023/02/07 07:50:00;;;;;;;;;15.75;13.25;;;;;3.60;54.63;103087.03;4960203;28;45282;-66
2023/02/07 07:52:26;;;;;;;;;15.50;13.25;;;;;3.63;55.00;103091.47;4943048;28;45204;-65
2023/02/07 07:54:51;;;;;;;;;14.25;13.00;;;;;3.63;54.77;103107.97;4959201;28;45354;-65
2023/02/07 07:57:16;;;;;;;;;14.50;11.75;;;;;3.61;54.71;103100.91;4960507;28;45328;-65
2023/02/07 07:59:42;;;;;;;;;14.50;13.25;;;;;3.64;54.66;103088.06;4960611;28;45919;-63
2023/02/07 08:02:11;;;;;;;;;17.50;14.75;;;;;3.67;54.80;103090.81;4960690;28;45357;-63
2023/02/07 08:04:36;;;;;;;;;19.75;14.75;;;;;3.66;55.01;103094.22;4958116;28;46242;-64
2023/02/07 08:07:02;;;;;;;;;17.00;15.75;;;;;3.69;54.68;103099.59;4960165;28;46431;-64
2023/02/07 08:09:27;;;;;;;;;13.25;8.25;;;;;3.71;54.94;103095.34;4960155;28;45437;-64
2023/02/07 08:11:52;;;;;;;;;25.25;20.75;;;;;3.70;54.92;103099.69;4960381;28;45321;-63
2023/02/07 08:14:18;;;;;;;;;18.00;12.00;;;;;3.75;55.07;103107.72;4960356;28;45412;-64
2023/02/07 08:16:43;;;;;;;;;19.75;16.00;;;;;3.76;55.11;103101.72;4960179;28;45281;-64
2023/02/07 08:19:08;;;;;;;;;30.75;26.25;;;;;3.78;54.54;103110.47;4960411;28;45291;-63
2023/02/07 08:21:34;;;;;;;;;15.50;13.50;;;;;3.78;55.06;103113.06;4960346;28;45311;-63
2023/02/07 08:23:59;;;;;;;;;14.00;14.00;;;;;3.83;54.88;103122.00;4958865;28;45627;-63
2023/02/07 08:26:24;;;;;;;;;15.50;13.50;;;;;3.82;54.63;103104.59;4959612;28;45315;-63
2023/02/07 08:28:51;;;;;;;;;17.25;16.75;;;;;3.86;54.54;103103.06;4940680;28;45495;-63
2023/02/07 08:31:17;;;;;;;;;19.25;17.00;;;;;3.93;54.54;103109.50;4960330;28;45378;-63
2023/02/07 08:33:43;;;;;;;;;13.00;13.00;;;;;3.95;55.02;103106.16;4960051;28;45402;-63
2023/02/07 08:36:10;;;;;;;;;16.75;12.50;;;;;3.99;54.81;103115.00;4960291;28;45299;-63
2023/02/07 08:38:36;;;;;;;;;19.00;17.25;;;;;4.03;54.59;103122.16;4960143;28;45485;-64
2023/02/07 08:41:01;;;;;;;;;18.00;16.75;;;;;4.07;55.18;103125.00;4959573;28;45326;-63
2023/02/07 08:43:26;;;;;;;;;14.50;14.00;;;;;4.11;55.08;103118.22;4959832;28;45386;-63
2023/02/07 08:45:52;;;;;;;;;21.25;18.50;;;;;4.18;54.90;103120.31;4959978;28;45328;-63
2023/02/07 08:48:17;;;;;;;;;19.25;17.25;;;;;4.23;54.74;103129.25;4960589;28;45542;-63
2023/02/07 08:50:43;;;;;;;;;16.75;14.25;;;;;4.27;54.56;103113.78;4959682;28;45400;-62
2023/02/07 08:53:08;;;;;;;;;15.00;13.50;;;;;4.32;54.90;103101.91;4961241;28;45243;-62
2023/02/07 08:55:34;;;;;;;;;15.50;11.25;;;;;4.42;55.23;103111.94;4962907;28;45322;-63
2023/02/07 08:57:59;;;;;;;;;13.75;12.25;;;;;4.48;54.93;103117.44;4963201;28;45532;-62
2023/02/07 09:00:25;;;;;;;;;18.00;13.75;;;;;4.58;55.01;103117.88;4963279;28;47038;-62
2023/02/07 09:02:50;;;;;;;;;15.00;14.00;;;;;4.66;55.01;103120.03;4945708;28;46910;-62
2023/02/07 09:05:16;;;;;;;;;20.00;14.25;;;;;4.76;54.85;103118.78;4962128;28;45377;-63
2023/02/07 09:07:41;;;;;;;;;18.00;14.25;;;;;4.86;54.99;103126.22;4963189;28;45481;-62
2023/02/07 09:10:07;;;;;;;;;14.75;12.50;;;;;4.98;54.98;103114.59;4962813;28;45472;-62
2023/02/07 09:12:34;;;;;;;;;9.50;6.75;;;;;5.11;55.08;103114.34;4962801;28;45432;-63
2023/02/07 09:15:00;;;;;;;;;10.25;9.25;;;;;5.24;55.07;103120.13;4962537;28;45357;-63
2023/02/07 09:17:25;;;;;;;;;15.00;10.75;;;;;5.40;55.22;103130.44;4963019;28;45596;-63
2023/02/07 09:19:51;;;;;;;;;17.25;15.00;;;;;5.58;55.14;103130.34;4963075;28;45317;-63
2023/02/07 09:22:16;;;;;;;;;15.25;12.50;;;;;5.77;55.10;103132.06;4962760;28;45367;-63
2023/02/07 09:24:42;;;;;;;;;16.00;14.50;;;;;5.95;55.35;103129.38;4962229;28;45329;-62
2023/02/07 09:27:08;;;;;;;;;14.00;11.00;;;;;6.17;55.46;103133.81;4945533;28;45465;-63
2023/02/07 09:29:33;;;;;;;;;15.75;11.25;;;;;6.41;55.32;103137.41;4959181;28;45331;-63
2023/02/07 09:31:59;;;;;;;;;17.50;14.00;;;;;6.65;55.22;103150.56;4962767;28;45573;-63
2023/02/07 09:34:24;;;;;;;;;16.25;12.50;;;;;6.86;55.44;103147.94;4962764;28;45402;-62
2023/02/07 09:36:49;;;;;;;;;14.75;12.25;;;;;7.04;55.47;103141.63;4962902;28;45446;-63
2023/02/07 09:39:15;;;;;;;;;18.50;13.50;;;;;7.27;55.27;103145.13;4962382;28;45247;-63
2023/02/07 09:42:07;;;;;;;;;59.50;42.50;;;;;7.49;55.38;103152.06;4962145;28;46302;-63
2023/02/07 09:45:03;;;;;;;;;17.75;14.25;;;;;7.70;55.59;103154.59;4962380;28;45437;-63
2023/02/07 09:47:31;;;;;;;;;17.00;12.75;;;;;7.86;55.47;103157.75;4959987;28;45281;-63
2023/02/07 09:50:02;;;;;;;;;15.00;15.00;;;;;7.99;55.41;103152.13;4960176;28;45554;-63
2023/02/07 09:52:43;;;;;;;;;17.25;13.75;;;;;8.16;55.26;103168.41;4966694;28;45311;-62
2023/02/07 09:55:40;;;;;;;;;18.25;14.25;;;;;8.30;55.58;103163.63;4961627;28;45463;-63
2023/02/07 09:58:17;;;;;;;;;18.00;14.75;;;;;8.43;55.34;103168.47;4962162;28;45432;-63
2023/02/07 10:00:52;;;;;;;;;13.50;11.75;;;;;8.53;55.44;103164.44;4962294;28;45431;-63
2023/02/07 10:03:22;;;;;;;;;12.50;12.50;;;;;8.64;55.20;103169.16;4958411;28;46664;-62
2023/02/07 10:05:54;;;;;;;;;14.25;13.00;;;;;8.78;55.23;103171.38;4962230;28;45160;-62
2023/02/07 10:08:19;;;;;;;;;14.25;13.00;;;;;8.92;55.19;103174.44;4958269;28;45386;-66
2023/02/07 10:11:04;;;;;;;;;14.50;13.75;;;;;9.07;55.33;103171.41;4961756;28;45354;-67
2023/02/07 10:13:53;;;;;;;;;19.50;17.25;;;;;9.22;55.32;103177.94;4962018;28;45465;-66
2023/02/07 10:16:44;;;;;;;;;19.75;17.75;;;;;9.34;55.17;103178.31;4957330;28;45299;-66
2023/02/07 10:19:47;;;;;;;;;14.75;13.75;;;;;9.47;55.13;103171.72;4957447;28;45304;-66
2023/02/07 10:22:38;;;;;;;;;14.75;13.00;;;;;9.59;55.28;103176.44;4957828;28;45362;-60
2023/02/07 10:25:23;;;;;;;;;13.25;11.25;;;;;9.70;55.09;103166.25;4921176;28;46414;-60
2023/02/07 10:28:13;;;;;;;;;15.00;13.50;;;;;9.79;55.31;103161.25;4958412;28;45294;-60
2023/02/07 10:30:53;;;;;;;;;13.25;12.75;;;;;9.90;55.27;103161.53;4958386;28;45448;-59
2023/02/07 10:33:23;;;;;;;;;20.00;14.50;;;;;9.99;55.03;103163.53;4962068;28;45628;-60
2023/02/07 10:35:50;;;;;;;;;17.00;14.25;;;;;10.08;54.99;103159.38;4961510;28;46667;-60
2023/02/07 10:38:24;;;;;;;;;15.75;13.25;;;;;10.19;55.03;103156.19;4961925;28;45358;-61
2023/02/07 10:41:01;;;;;;;;;18.75;15.00;;;;;10.28;54.94;103150.28;4959086;28;45318;-61
2023/02/07 10:43:34;;;;;;;;;16.00;15.50;;;;;10.43;54.59;103149.78;4961536;28;45243;-61
2023/02/07 10:46:07;;;;;;;;;14.25;14.25;;;;;10.56;54.83;103150.13;4961380;28;46227;-61
2023/02/07 10:48:34;;;;;;;;;15.50;12.50;;;;;10.70;54.95;103162.72;4958482;28;45364;-60
2023/02/07 10:51:02;;;;;;;;;12.50;10.50;;;;;10.83;54.74;103151.63;4948718;28;45364;-61
2023/02/07 10:53:49;;;;;;;;;14.00;13.25;;;;;10.99;54.84;103158.16;4963497;28;45319;-61
2023/02/07 10:56:23;;;;;;;;;12.25;12.00;;;;;11.14;54.62;103149.69;4961006;28;45219;-61
2023/02/07 10:58:49;;;;;;;;;17.75;15.25;;;;;11.31;54.58;103147.41;4961699;28;45335;-61
2023/02/07 11:01:24;;;;;;;;;14.25;13.75;;;;;11.51;54.76;103149.59;4961617;28;45323;-61
2023/02/07 11:03:50;;;;;;;;;15.25;13.00;;;;;11.68;54.56;103142.00;4961635;28;45307;-62
2023/02/07 11:06:25;;;;;;;;;16.75;13.75;;;;;11.75;54.80;103129.84;4961389;28;45427;-62
2023/02/07 11:09:18;;;;;;;;;16.50;14.00;;;;;12.11;54.51;103156.03;4961524;28;45557;-61
2023/02/07 11:11:50;;;;;;;;;13.50;12.50;;;;;12.34;54.49;103145.88;4932683;28;45192;-62
2023/02/07 11:14:25;;;;;;;;;12.50;10.50;;;;;12.58;54.54;103141.88;4961336;28;45323;-62
2023/02/07 11:17:00;;;;;;;;;17.50;14.00;;;;;12.81;54.19;103149.25;4960693;28;47063;-62
2023/02/07 11:19:28;;;;;;;;;19.50;17.75;;;;;13.05;54.69;103158.38;4961238;28;45176;-62
2023/02/07 11:22:05;;;;;;;;;13.00;11.75;;;;;13.15;54.09;103133.88;4961450;28;45455;-62
2023/02/07 11:24:35;;;;;;;;;16.50;15.00;;;;;13.43;54.59;103148.34;4961033;28;45424;-61
2023/02/07 11:27:20;;;;;;;;;12.75;12.75;;;;;13.61;54.36;103139.75;4960893;28;45530;-62